Airfield :
LOGIN :

Register | Disclaimer

   EN    FR    IT 

 










Legend :    VFR   Marginal VFR   IFR   Intensive IFR   Very Intensive IFR
Visi :
Ceiling :
>= 8 km
>= 3000ft
5 to 8 km
1000 to 3000 ft
1500m to 5 km
500 to 1000 ft
800 to 1500m
200 to 500 ft
< 800m
< 200 ft
Symbols :   Thunderstorms  Fog  Heavy snow  Heavy precipitations  Wind > 20 kt
SIGMETs :     Misc.  Thunderstorms  Icing  Turbulence  Mountain Waves  Volcanic Ashes







- Airport Elevation : 126 ft
- IATA code : WIC
- Download approach charts


EGPC - Wick

CURRENT METAR :
  • 211620Z AUTO 09007KT 9999 NCD 14/12 Q1011

EXPIRED METARs :
  • 211550Z AUTO 08009KT 9999 NCD 15/12 Q1011
  • 211520Z AUTO 09008KT 9999 BKN018/// 15/12 Q1011
  • 211450Z AUTO 13008KT 9999 BKN019/// 16/12 Q1012
  • 211420Z AUTO 16006KT 9999 OVC024/// 15/12 Q1012
  • 211350Z AUTO 17007KT 9999 SCT025/// BKN030/// 15/11 Q1012

TAF TAF EGPC
Valid from the 21 at 15:00 until the 22 at 00:00 UTC


211500Z 2115/2124 15006KT 9999 SCT025
BECMG 2121/2124 21010KT
ATIS : +44 1955 607 596
No reported NOTAMs for that airfield.



MET'MAP, your aeronautical weather chart ! - Copyright ORBIFLY December 2007 - Disclaimer

ORBIFLY MET'MAP TEAM :

Programming & Development : Alexandra Zaïnal
Concept & Development : Baudouin d'Aumeries
Co-Development & Prog : Marc-Olivier Méhu
Technical & hardware support : Manuel Goepfert

Contact : metmap@orbifly.com




SOURCES & CREDITS :

   NOAA